createdAt,value
2022-08-12T00:01:26.989Z,3.60
2022-08-12T00:04:01.953Z,3.57
2022-08-12T00:06:23.175Z,3.43
2022-08-12T00:08:44.266Z,3.40
2022-08-12T00:11:12.280Z,3.00
2022-08-12T00:13:34.409Z,3.27
2022-08-12T00:15:55.110Z,3.40
2022-08-12T00:18:15.546Z,3.10
2022-08-12T00:20:36.189Z,3.77
2022-08-12T00:22:59.139Z,3.33
2022-08-12T00:26:01.348Z,3.97
2022-08-12T00:28:05.381Z,4.13
2022-08-12T00:30:26.756Z,4.07
2022-08-12T00:32:54.250Z,3.10
2022-08-12T00:35:17.660Z,3.83
2022-08-12T00:37:41.209Z,3.60
2022-08-12T00:40:02.037Z,3.50
2022-08-12T00:42:13.328Z,4.30
2022-08-12T00:44:16.385Z,3.80
2022-08-12T00:46:36.383Z,3.60
2022-08-12T00:48:39.208Z,4.10
2022-08-12T00:50:42.695Z,3.60
2022-08-12T00:52:46.845Z,3.43
2022-08-12T00:54:51.087Z,3.97
2022-08-12T00:56:54.901Z,4.10
2022-08-12T00:58:57.242Z,3.43
2022-08-12T01:01:07.575Z,3.70
2022-08-12T01:03:11.113Z,4.43
2022-08-12T01:05:35.396Z,4.80
2022-08-12T01:07:57.423Z,3.33
2022-08-12T01:10:18.822Z,3.93
2022-08-12T01:12:32.303Z,3.77
2022-08-12T01:14:35.134Z,3.47
2022-08-12T01:16:37.894Z,3.37
2022-08-12T01:18:40.409Z,3.60
2022-08-12T01:21:16.692Z,3.60
2022-08-12T01:23:24.533Z,4.30
2022-08-12T01:25:29.911Z,3.93
2022-08-12T01:27:34.492Z,4.10
2022-08-12T01:29:42.142Z,3.73
2022-08-12T01:31:46.465Z,3.30
2022-08-12T01:33:51.584Z,3.80
2022-08-12T01:36:08.255Z,4.00
2022-08-12T01:38:12.588Z,3.83
2022-08-12T01:40:33.301Z,4.40
2022-08-12T01:42:50.423Z,4.03
2022-08-12T01:44:55.994Z,3.50
2022-08-12T01:47:42.926Z,3.80
2022-08-12T01:50:00.636Z,3.97
2022-08-12T01:52:20.600Z,3.80
2022-08-12T01:54:25.305Z,3.50
2022-08-12T01:56:32.817Z,2.93
2022-08-12T01:58:57.984Z,3.50
2022-08-12T02:01:05.126Z,3.63
2022-08-12T02:04:13.925Z,3.60
2022-08-12T02:06:41.374Z,3.50
2022-08-12T02:09:14.811Z,3.60
2022-08-12T02:11:31.844Z,3.70
2022-08-12T02:13:49.635Z,3.43
2022-08-12T02:16:14.251Z,3.17
2022-08-12T02:18:26.488Z,3.10
2022-08-12T02:20:52.545Z,3.90
2022-08-12T02:22:55.650Z,3.63
2022-08-12T02:25:05.499Z,3.37
2022-08-12T02:27:09.352Z,3.53
2022-08-12T02:29:13.317Z,3.90
2022-08-12T02:31:15.561Z,3.37
2022-08-12T02:33:19.150Z,3.03
2022-08-12T02:35:23.614Z,3.23
2022-08-12T02:37:27.181Z,3.80
2022-08-12T02:39:33.807Z,4.10
2022-08-12T02:41:39.416Z,3.77
2022-08-12T02:43:49.392Z,3.87
2022-08-12T02:46:08.284Z,3.73
2022-08-12T02:48:37.744Z,3.13
2022-08-12T02:50:46.345Z,3.40
2022-08-12T02:52:49.852Z,4.03
2022-08-12T02:54:54.201Z,3.77
2022-08-12T02:56:56.348Z,3.70
2022-08-12T02:59:00.938Z,3.83
2022-08-12T03:01:05.636Z,3.43
2022-08-12T03:03:10.667Z,3.00
2022-08-12T03:05:15.470Z,3.43
2022-08-12T03:07:55.801Z,3.43
2022-08-12T03:10:16.057Z,3.67
2022-08-12T03:12:20.754Z,3.83
2022-08-12T03:14:27.816Z,3.97
2022-08-12T03:16:33.317Z,3.73
2022-08-12T03:18:35.843Z,3.40
2022-08-12T03:20:38.520Z,4.17
2022-08-12T03:22:43.504Z,3.20
2022-08-12T03:24:45.921Z,3.50
2022-08-12T03:26:49.172Z,3.73
2022-08-12T03:28:54.277Z,3.03
2022-08-12T03:30:58.658Z,3.50
2022-08-12T03:33:03.367Z,3.80
2022-08-12T03:35:07.865Z,3.90
2022-08-12T03:37:11.468Z,3.87
2022-08-12T03:39:17.862Z,3.67
2022-08-12T03:41:40.748Z,3.80
2022-08-12T03:44:25.887Z,3.83
2022-08-12T03:46:54.217Z,4.00
2022-08-12T03:49:15.822Z,3.47
2022-08-12T03:51:36.471Z,3.50
2022-08-12T03:53:57.391Z,3.50
2022-08-12T03:56:18.479Z,3.70
2022-08-12T03:58:40.030Z,3.67
2022-08-12T04:00:42.226Z,3.60
2022-08-12T04:02:44.799Z,3.80
2022-08-12T04:04:47.441Z,3.97
2022-08-12T04:06:52.117Z,4.00
2022-08-12T04:08:57.803Z,3.80
2022-08-12T04:11:18.954Z,3.73
2022-08-12T04:13:23.985Z,3.93
2022-08-12T04:15:28.954Z,4.00
2022-08-12T04:17:32.199Z,3.67
2022-08-12T04:19:34.825Z,3.57
2022-08-12T04:21:42.170Z,3.77
2022-08-12T04:24:02.186Z,3.67
2022-08-12T04:26:07.407Z,4.07
2022-08-12T04:28:13.739Z,3.63
2022-08-12T04:30:33.207Z,3.80
2022-08-12T04:32:37.697Z,4.03
2022-08-12T04:34:44.555Z,4.00
2022-08-12T04:36:46.711Z,4.33
2022-08-12T04:38:49.629Z,4.10
2022-08-12T04:40:52.206Z,4.13
2022-08-12T04:42:54.339Z,3.63
2022-08-12T04:44:57.859Z,4.00
2022-08-12T04:47:00.261Z,3.73
2022-08-12T04:49:04.145Z,4.10
2022-08-12T04:51:06.736Z,3.90
2022-08-12T04:53:09.439Z,3.70
2022-08-12T04:55:12.784Z,3.57
2022-08-12T04:57:22.191Z,4.00
2022-08-12T04:59:24.355Z,4.03
2022-08-12T05:01:31.613Z,4.20
2022-08-12T05:03:46.679Z,3.60
2022-08-12T05:05:49.604Z,3.80
2022-08-12T05:07:54.856Z,3.80
2022-08-12T05:10:00.380Z,3.20
2022-08-12T05:12:03.747Z,3.40
2022-08-12T05:14:06.150Z,3.70
2022-08-12T05:16:09.536Z,3.83
2022-08-12T05:18:19.621Z,3.30
2022-08-12T05:20:23.090Z,3.40
2022-08-12T05:22:28.043Z,3.10
2022-08-12T05:24:30.261Z,3.47
2022-08-12T05:26:32.404Z,3.10
2022-08-12T05:28:34.892Z,2.80
2022-08-12T05:30:37.339Z,3.23
2022-08-12T05:32:39.740Z,3.20
2022-08-12T05:34:42.139Z,3.27
2022-08-12T05:36:44.817Z,3.30
2022-08-12T05:38:59.506Z,3.30
2022-08-12T05:41:06.585Z,3.47
2022-08-12T05:43:12.086Z,3.00
2022-08-12T05:45:14.216Z,3.00
2022-08-12T05:47:16.406Z,3.47
2022-08-12T05:49:18.572Z,3.40
2022-08-12T05:51:28.081Z,3.00
2022-08-12T05:53:42.418Z,2.77
2022-08-12T05:55:44.625Z,3.27
2022-08-12T05:57:55.449Z,3.43
2022-08-12T05:59:57.669Z,3.37
2022-08-12T06:02:12.184Z,3.20
2022-08-12T06:04:15.563Z,3.03
2022-08-12T06:06:17.975Z,2.80
2022-08-12T06:08:20.153Z,2.87
2022-08-12T06:10:31.466Z,3.00
2022-08-12T06:12:35.111Z,2.70
2022-08-12T06:14:38.990Z,3.07
2022-08-12T06:16:41.535Z,3.13
2022-08-12T06:18:43.985Z,2.83
2022-08-12T06:20:49.659Z,3.00
2022-08-12T06:22:56.003Z,2.70
2022-08-12T06:25:00.507Z,2.50
2022-08-12T06:27:03.414Z,2.83
2022-08-12T06:29:05.955Z,3.00
2022-08-12T06:31:25.400Z,2.90
2022-08-12T06:33:55.669Z,2.20
2022-08-12T06:35:52.375Z,2.50
2022-08-12T06:38:00.076Z,2.60
2022-08-12T06:40:03.988Z,3.00
2022-08-12T06:42:32.434Z,2.77
2022-08-12T06:44:44.259Z,3.07
2022-08-12T06:46:47.285Z,3.30
2022-08-12T06:48:56.425Z,2.93
2022-08-12T06:50:59.624Z,2.90
2022-08-12T06:53:05.691Z,2.83
2022-08-12T06:55:08.993Z,3.13
2022-08-12T06:58:06.179Z,2.50
2022-08-12T06:59:35.634Z,2.67
2022-08-12T07:01:38.545Z,2.60
2022-08-12T07:03:40.805Z,2.53
2022-08-12T07:05:43.375Z,2.80
2022-08-12T07:07:47.914Z,2.30
2022-08-12T07:10:03.873Z,2.43
2022-08-12T07:12:19.972Z,2.67
2022-08-12T07:14:22.286Z,2.37
2022-08-12T07:16:24.864Z,2.60
2022-08-12T07:18:33.143Z,2.67
2022-08-12T07:20:51.812Z,2.00
2022-08-12T07:22:56.065Z,1.90
2022-08-12T07:25:16.925Z,2.07
2022-08-12T07:27:19.479Z,1.73
2022-08-12T07:29:23.026Z,1.67
2022-08-12T07:31:25.214Z,1.60
2022-08-12T07:33:28.941Z,1.37
2022-08-12T07:35:32.656Z,1.80
2022-08-12T07:37:40.719Z,2.30
2022-08-12T07:39:50.974Z,1.60
2022-08-12T07:42:02.414Z,1.70
2022-08-12T07:44:07.066Z,1.70
2022-08-12T07:46:12.731Z,2.03
2022-08-12T07:48:15.108Z,1.57
2022-08-12T07:50:23.547Z,1.50
2022-08-12T07:52:26.241Z,1.50
2022-08-12T07:54:28.409Z,1.50
2022-08-12T07:56:31.839Z,1.47
2022-08-12T07:58:34.083Z,1.80
2022-08-12T08:00:42.477Z,1.77
2022-08-12T08:02:44.716Z,1.33
2022-08-12T08:04:56.115Z,1.40
2022-08-12T08:07:00.401Z,1.40
2022-08-12T08:09:04.416Z,1.47
2022-08-12T08:11:32.943Z,1.03
2022-08-12T08:13:35.930Z,1.10
2022-08-12T08:16:01.941Z,1.10
2022-08-12T08:18:05.476Z,1.20
2022-08-12T08:20:10.984Z,1.67
2022-08-12T08:22:13.253Z,1.50
2022-08-12T08:24:15.456Z,1.50
2022-08-12T08:26:20.739Z,1.53
2022-08-12T08:28:23.001Z,1.50
2022-08-12T08:30:25.322Z,1.30
2022-08-12T08:32:27.537Z,1.50
2022-08-12T08:36:55.614Z,1.17
2022-08-12T08:38:58.943Z,1.10
2022-08-12T08:42:18.741Z,1.60
2022-08-12T08:43:44.624Z,1.10
2022-08-12T08:45:48.358Z,1.47
2022-08-12T08:47:51.765Z,1.40
2022-08-12T08:49:57.974Z,1.10
2022-08-12T08:52:00.158Z,1.37
2022-08-12T08:54:02.791Z,1.50
2022-08-12T08:56:05.805Z,1.40
2022-08-12T08:58:08.897Z,1.30
2022-08-12T09:00:16.692Z,1.50
2022-08-12T09:02:19.317Z,1.23
2022-08-12T09:05:12.372Z,1.40
2022-08-12T09:06:53.716Z,1.50
2022-08-12T09:08:58.138Z,1.20
2022-08-12T09:12:07.593Z,1.20
2022-08-12T09:14:12.061Z,1.27
2022-08-12T09:16:08.598Z,1.13
2022-08-12T09:18:12.008Z,1.30
2022-08-12T09:20:16.821Z,1.20
2022-08-12T09:22:21.027Z,1.17
2022-08-12T09:24:23.480Z,1.10
2022-08-12T09:26:38.351Z,1.30
2022-08-12T09:28:53.143Z,1.30
2022-08-12T09:30:59.114Z,1.00
2022-08-12T09:33:14.494Z,1.43
2022-08-12T09:35:28.544Z,1.20
2022-08-12T09:37:57.749Z,1.10
2022-08-12T09:40:03.518Z,1.37
2022-08-12T09:42:43.544Z,1.17
2022-08-12T09:45:18.101Z,1.10
2022-08-12T09:47:28.913Z,1.30
2022-08-12T09:49:39.941Z,1.27
2022-08-12T09:51:47.557Z,1.40
2022-08-12T09:54:08.562Z,1.43
2022-08-12T09:57:00.686Z,1.20
2022-08-12T09:58:53.772Z,1.10
2022-08-12T10:01:06.290Z,1.00
2022-08-12T10:03:32.602Z,1.30
2022-08-12T10:06:27.215Z,1.30
2022-08-12T10:08:02.512Z,2.00
2022-08-12T10:10:05.520Z,1.10
2022-08-12T10:12:31.120Z,1.30
2022-08-12T10:14:36.587Z,1.50
2022-08-12T10:16:43.899Z,1.00
2022-08-12T10:18:56.381Z,1.40
2022-08-12T10:20:59.369Z,1.40
2022-08-12T10:23:01.851Z,1.70
2022-08-12T10:25:24.524Z,1.10
2022-08-12T10:28:09.928Z,1.27
2022-08-12T10:30:40.189Z,1.10
2022-08-12T10:33:02.258Z,1.40
2022-08-12T10:35:05.347Z,1.23
2022-08-12T10:37:22.546Z,1.27
2022-08-12T10:40:02.268Z,1.20
2022-08-12T10:42:29.310Z,1.50
2022-08-12T10:44:33.759Z,1.20
2022-08-12T10:46:37.370Z,1.10
2022-08-12T10:48:39.502Z,1.00
2022-08-12T10:51:01.680Z,1.40
2022-08-12T10:53:09.012Z,1.53
2022-08-12T10:55:13.530Z,1.10
2022-08-12T10:57:17.996Z,1.10
2022-08-12T11:00:30.676Z,1.30
2022-08-12T11:04:20.138Z,1.20
2022-08-12T11:04:41.268Z,1.23
2022-08-12T11:07:08.852Z,1.60
2022-08-12T11:09:51.226Z,1.20
2022-08-12T11:12:35.047Z,1.30
2022-08-12T11:14:49.652Z,1.30
2022-08-12T11:17:06.491Z,1.37
2022-08-12T11:19:13.379Z,1.43
2022-08-12T11:21:57.003Z,1.23
2022-08-12T11:23:53.411Z,1.20
2022-08-12T11:26:00.470Z,1.33
2022-08-12T11:28:07.953Z,1.30
2022-08-12T11:30:31.173Z,1.57
2022-08-12T11:32:38.750Z,1.50
2022-08-12T11:34:53.690Z,1.30
2022-08-12T11:36:58.618Z,1.20
2022-08-12T11:39:04.255Z,1.40
2022-08-12T11:41:07.553Z,1.40
2022-08-12T11:43:19.289Z,1.40
2022-08-12T11:45:22.624Z,1.50
2022-08-12T11:47:25.501Z,1.30
2022-08-12T11:49:31.328Z,1.57
2022-08-12T11:51:36.550Z,1.40
2022-08-12T11:53:59.643Z,1.60
2022-08-12T11:56:03.946Z,1.40
2022-08-12T11:58:33.933Z,1.23
2022-08-12T12:02:51.218Z,1.40
2022-08-12T12:04:53.975Z,1.37
2022-08-12T12:06:56.491Z,1.30
2022-08-12T12:09:09.799Z,1.40
2022-08-12T12:11:12.034Z,1.30
2022-08-12T12:13:22.923Z,1.47
2022-08-12T12:15:40.907Z,1.20
2022-08-12T12:17:43.755Z,1.70
2022-08-12T12:19:46.501Z,1.33
2022-08-12T12:21:49.711Z,1.47
2022-08-12T12:23:51.941Z,1.40
2022-08-12T12:26:07.260Z,1.60
2022-08-12T12:28:35.268Z,1.30
2022-08-12T12:30:34.331Z,1.30
2022-08-12T12:32:36.518Z,1.20
2022-08-12T12:34:38.940Z,1.20
2022-08-12T12:37:01.138Z,1.80
2022-08-12T12:39:06.441Z,1.37
2022-08-12T12:41:14.317Z,1.67
2022-08-12T12:43:37.166Z,1.40
2022-08-12T12:45:44.578Z,1.70
2022-08-12T12:47:56.780Z,1.33
2022-08-12T12:49:58.964Z,1.37
2022-08-12T12:52:18.685Z,1.53
2022-08-12T12:54:28.997Z,1.43
2022-08-12T12:56:34.690Z,1.40
2022-08-12T12:58:37.445Z,1.30
2022-08-12T13:00:50.844Z,1.00
2022-08-12T13:02:57.949Z,1.77
2022-08-12T13:05:00.161Z,1.27
2022-08-12T13:07:02.198Z,1.27
2022-08-12T13:09:12.895Z,1.10
2022-08-12T13:11:15.299Z,1.43
2022-08-12T13:14:09.432Z,1.40
2022-08-12T13:15:45.410Z,1.17
2022-08-12T13:18:03.009Z,1.53
2022-08-12T13:20:06.947Z,1.20
2022-08-12T13:22:19.938Z,1.20
2022-08-12T13:24:22.379Z,1.40
2022-08-12T13:26:24.661Z,1.50
2022-08-12T13:28:31.523Z,1.50
2022-08-12T13:30:33.618Z,1.40
2022-08-12T13:32:37.323Z,1.33
2022-08-12T13:34:40.652Z,1.60
2022-08-12T13:36:45.325Z,1.40
2022-08-12T13:38:54.564Z,1.30
2022-08-12T13:40:58.517Z,1.53
2022-08-12T13:43:01.896Z,1.43
2022-08-12T13:45:04.315Z,1.40
2022-08-12T13:47:18.330Z,1.43
2022-08-12T13:49:55.085Z,1.33
2022-08-12T13:51:51.153Z,1.77
2022-08-12T13:53:59.041Z,1.23
2022-08-12T13:56:03.261Z,1.60
2022-08-12T13:58:06.253Z,2.00
2022-08-12T14:00:16.004Z,1.47
2022-08-12T14:02:22.749Z,1.30
2022-08-12T14:04:27.411Z,1.80
2022-08-12T14:06:30.335Z,1.47
2022-08-12T14:08:34.588Z,1.73
2022-08-12T14:10:50.429Z,1.57
2022-08-12T14:12:54.681Z,1.40
2022-08-12T14:14:57.946Z,1.43
2022-08-12T14:17:09.961Z,1.60
2022-08-12T14:19:22.130Z,1.60
2022-08-12T14:21:26.919Z,1.67
2022-08-12T14:24:04.216Z,1.90
2022-08-12T14:25:58.900Z,1.90
2022-08-12T14:28:11.433Z,2.40
2022-08-12T14:30:15.654Z,1.77
2022-08-12T14:32:26.016Z,1.80
2022-08-12T14:34:28.332Z,1.80
2022-08-12T14:36:30.661Z,2.13
2022-08-12T14:38:39.492Z,1.80
2022-08-12T14:40:42.508Z,1.90
2022-08-12T14:42:44.548Z,1.73
2022-08-12T14:44:57.971Z,1.23
2022-08-12T14:47:07.550Z,1.60
2022-08-12T14:50:00.960Z,1.90
2022-08-12T14:52:48.513Z,1.60
2022-08-12T14:56:49.097Z,1.77
2022-08-12T14:57:05.590Z,1.73
2022-08-12T14:59:23.531Z,1.60
2022-08-12T15:01:44.750Z,1.70
2022-08-12T15:03:57.853Z,1.97
2022-08-12T15:06:39.260Z,2.07
2022-08-12T15:08:35.267Z,1.67
2022-08-12T15:10:43.599Z,1.80
2022-08-12T15:12:56.669Z,1.60
2022-08-12T15:15:00.373Z,2.00
2022-08-12T15:17:07.134Z,1.77
2022-08-12T15:20:07.570Z,1.90
2022-08-12T15:22:38.685Z,1.73
2022-08-12T15:23:55.565Z,2.00
2022-08-12T15:26:03.644Z,1.50
2022-08-12T15:28:20.550Z,1.83
2022-08-12T15:30:24.871Z,2.10
2022-08-12T15:32:32.888Z,1.93
2022-08-12T15:34:38.932Z,1.80
2022-08-12T15:36:41.026Z,2.17
2022-08-12T15:38:57.631Z,1.90
2022-08-12T15:41:00.135Z,1.80
2022-08-12T15:43:04.233Z,1.60
2022-08-12T15:45:10.247Z,1.50
2022-08-12T15:47:26.782Z,1.70
2022-08-12T15:49:29.176Z,1.80
2022-08-12T15:51:59.120Z,1.50
2022-08-12T15:54:30.756Z,1.80
2022-08-12T15:56:30.938Z,1.70
2022-08-12T15:58:33.912Z,1.87
2022-08-12T16:00:41.056Z,1.77
2022-08-12T16:02:50.688Z,1.60
2022-08-12T16:04:55.432Z,1.80
2022-08-12T16:07:05.968Z,1.50
2022-08-12T16:09:11.433Z,1.70
2022-08-12T16:11:18.800Z,1.60
2022-08-12T16:13:32.300Z,1.77
2022-08-12T16:15:37.857Z,1.70
2022-08-12T16:18:14.941Z,1.87
2022-08-12T16:20:11.605Z,1.97
2022-08-12T16:22:14.471Z,1.70
2022-08-12T16:24:18.638Z,1.90
2022-08-12T16:26:32.482Z,1.87
2022-08-12T16:28:35.623Z,1.63
2022-08-12T16:30:41.254Z,1.80
2022-08-12T16:32:53.866Z,1.90
2022-08-12T16:34:56.548Z,1.60
2022-08-12T16:37:02.102Z,1.70
2022-08-12T16:39:05.366Z,1.87
2022-08-12T16:41:07.343Z,1.83
2022-08-12T16:43:42.515Z,2.23
2022-08-12T16:46:08.038Z,1.97
2022-08-12T16:48:08.526Z,2.10
2022-08-12T16:50:31.506Z,1.53
2022-08-12T16:52:37.933Z,2.07
2022-08-12T16:54:41.119Z,1.87
2022-08-12T16:56:55.371Z,1.83
2022-08-12T16:58:59.904Z,2.03
2022-08-12T17:01:02.259Z,1.83
2022-08-12T17:03:05.061Z,1.60
2022-08-12T17:05:12.607Z,1.70
2022-08-12T17:07:19.696Z,2.07
2022-08-12T17:09:22.034Z,1.60
2022-08-12T17:11:25.356Z,1.93
2022-08-12T17:13:33.724Z,2.15
2022-08-12T17:15:57.575Z,1.70
2022-08-12T17:18:42.429Z,2.33
2022-08-12T17:20:34.982Z,2.17
2022-08-12T17:22:41.572Z,1.80
2022-08-12T17:24:54.837Z,2.70
2022-08-12T17:27:09.441Z,1.77
2022-08-12T17:29:24.210Z,2.00
2022-08-12T17:32:01.390Z,1.80
2022-08-12T17:34:05.798Z,1.97
2022-08-12T17:36:19.812Z,1.83
2022-08-12T17:38:22.869Z,1.83
2022-08-12T17:40:34.606Z,1.90
2022-08-12T17:42:39.348Z,1.90
2022-08-12T17:44:43.707Z,2.60
2022-08-12T17:46:53.770Z,2.10
2022-08-12T17:48:57.742Z,2.07
2022-08-12T17:51:01.291Z,1.83
2022-08-12T17:53:04.639Z,2.20
2022-08-12T17:55:09.951Z,1.97
2022-08-12T17:57:30.856Z,1.73
2022-08-12T17:59:47.885Z,1.70
2022-08-12T18:01:51.339Z,2.10
2022-08-12T18:04:04.730Z,2.03
2022-08-12T18:06:16.366Z,2.10
2022-08-12T18:08:18.718Z,2.50
2022-08-12T18:10:44.339Z,2.00
2022-08-12T18:12:55.613Z,1.70
2022-08-12T18:15:02.108Z,2.07
2022-08-12T18:17:08.888Z,1.90
2022-08-12T18:19:11.873Z,2.43
2022-08-12T18:21:15.259Z,2.03
2022-08-12T18:23:24.269Z,1.70
2022-08-12T18:26:15.514Z,2.80
2022-08-12T18:28:16.620Z,1.90
2022-08-12T18:30:29.430Z,2.10
2022-08-12T18:32:58.303Z,2.10
2022-08-12T18:35:05.250Z,2.20
2022-08-12T18:37:41.073Z,2.57
2022-08-12T18:39:54.852Z,2.00
2022-08-12T18:41:58.046Z,1.80
2022-08-12T18:44:08.042Z,1.80
2022-08-12T18:46:13.614Z,2.10
2022-08-12T18:48:17.219Z,2.50
2022-08-12T18:50:19.395Z,2.43
2022-08-12T18:52:26.967Z,2.10
2022-08-12T18:54:32.317Z,2.17
2022-08-12T18:56:37.805Z,2.00
2022-08-12T18:58:59.299Z,2.13
2022-08-12T19:01:03.573Z,1.87
2022-08-12T19:03:09.224Z,2.17
2022-08-12T19:05:53.852Z,2.30
2022-08-12T19:08:01.290Z,2.27
2022-08-12T19:10:04.776Z,2.00
2022-08-12T19:12:30.356Z,2.17
2022-08-12T19:14:35.275Z,2.27
2022-08-12T19:16:39.427Z,2.17
2022-08-12T19:18:45.009Z,2.00
2022-08-12T19:20:47.953Z,2.03
2022-08-12T19:22:59.883Z,1.90
2022-08-12T19:25:23.709Z,2.40
2022-08-12T19:27:50.774Z,2.90
2022-08-12T19:30:06.110Z,2.73
2022-08-12T19:32:13.874Z,2.50
2022-08-12T19:36:40.603Z,2.40
2022-08-12T19:38:46.942Z,2.50
2022-08-12T19:40:59.302Z,2.47
2022-08-12T19:43:17.313Z,2.70
2022-08-12T19:45:22.790Z,2.80
2022-08-12T19:47:24.831Z,3.10
2022-08-12T19:49:27.303Z,2.87
2022-08-12T19:51:36.231Z,3.20
2022-08-12T19:53:56.739Z,2.50
2022-08-12T19:56:00.409Z,2.70
2022-08-12T19:58:04.687Z,3.10
2022-08-12T20:00:09.713Z,3.00
2022-08-12T20:02:15.299Z,2.63
2022-08-12T20:04:18.882Z,2.20
2022-08-12T20:06:24.394Z,2.80
2022-08-12T20:08:36.196Z,2.90
2022-08-12T20:10:46.804Z,2.90
2022-08-12T20:13:17.496Z,2.80
2022-08-12T20:15:22.038Z,2.90
2022-08-12T20:17:36.431Z,3.20
2022-08-12T20:20:17.683Z,2.43
2022-08-12T20:22:24.129Z,2.60
2022-08-12T20:24:37.019Z,3.00
2022-08-12T20:26:43.057Z,2.90
2022-08-12T20:28:45.607Z,3.10
2022-08-12T20:30:53.558Z,3.00
2022-08-12T20:33:02.917Z,3.33
2022-08-12T20:35:12.033Z,3.17
2022-08-12T20:37:25.290Z,4.17
2022-08-12T20:39:55.883Z,3.67
2022-08-12T20:42:01.816Z,4.47
2022-08-12T20:44:04.676Z,4.30
2022-08-12T20:46:20.016Z,4.87
2022-08-12T20:48:25.325Z,4.17
2022-08-12T20:50:28.308Z,5.50
2022-08-12T20:52:34.025Z,4.67
2022-08-12T20:54:37.812Z,4.60
2022-08-12T20:56:40.247Z,4.60
2022-08-12T20:58:47.262Z,4.30
2022-08-12T21:00:49.232Z,4.40
2022-08-12T21:02:52.626Z,4.17
2022-08-12T21:05:16.655Z,4.03
2022-08-12T21:07:23.598Z,4.53
2022-08-12T21:09:31.513Z,5.47
2022-08-12T21:11:36.505Z,4.93
2022-08-12T21:13:42.086Z,5.63
2022-08-12T21:15:54.952Z,5.97
2022-08-12T21:18:10.532Z,4.97
2022-08-12T21:20:22.385Z,5.30
2022-08-12T21:22:28.305Z,5.53
2022-08-12T21:24:32.411Z,6.13
2022-08-12T21:26:35.921Z,5.73
2022-08-12T21:28:44.227Z,5.77
2022-08-12T21:32:37.458Z,5.20
2022-08-12T21:33:23.522Z,5.87
2022-08-12T21:35:35.803Z,5.87
2022-08-12T21:37:42.519Z,6.20
2022-08-12T21:39:56.468Z,6.03
2022-08-12T21:42:02.412Z,6.70
2022-08-12T21:44:10.780Z,5.90
2022-08-12T21:46:34.979Z,6.70
2022-08-12T21:48:37.472Z,5.30
2022-08-12T21:50:40.094Z,6.57
2022-08-12T21:52:48.727Z,6.37
2022-08-12T21:54:56.526Z,6.23
2022-08-12T21:56:59.068Z,5.80
2022-08-12T21:59:01.215Z,6.70
2022-08-12T22:01:03.671Z,5.57
2022-08-12T22:04:04.009Z,5.93
2022-08-12T22:06:13.844Z,4.77
2022-08-12T22:08:26.147Z,4.50
2022-08-12T22:10:29.357Z,4.40
2022-08-12T22:12:34.730Z,5.00
2022-08-12T22:14:39.865Z,4.63
2022-08-12T22:16:47.133Z,4.40
2022-08-12T22:18:50.401Z,4.30
2022-08-12T22:20:53.935Z,4.20
2022-08-12T22:22:57.155Z,4.67
2022-08-12T22:25:00.347Z,4.37
2022-08-12T22:27:18.167Z,3.43
2022-08-12T22:29:45.770Z,3.77
2022-08-12T22:31:49.400Z,4.37
2022-08-12T22:33:59.706Z,3.60
2022-08-12T22:36:03.497Z,3.77
2022-08-12T22:38:23.477Z,4.10
2022-08-12T22:40:25.748Z,3.90
2022-08-12T22:42:46.718Z,3.40
2022-08-12T22:45:14.505Z,4.00
2022-08-12T22:47:53.998Z,4.10
2022-08-12T22:49:59.477Z,4.10
2022-08-12T22:52:06.779Z,4.43
2022-08-12T22:54:36.184Z,4.20
2022-08-12T22:56:32.578Z,4.37
2022-08-12T22:58:41.298Z,4.33
2022-08-12T23:00:48.319Z,4.50
2022-08-12T23:02:58.506Z,5.00
2022-08-12T23:05:03.895Z,5.30
2022-08-12T23:07:10.982Z,5.63
2022-08-12T23:09:23.300Z,5.97
2022-08-12T23:11:33.760Z,6.00
2022-08-12T23:13:45.857Z,6.20
2022-08-12T23:15:47.902Z,6.30
2022-08-12T23:17:57.861Z,6.43
2022-08-12T23:20:01.659Z,5.83
2022-08-12T23:22:35.717Z,5.23
2022-08-12T23:24:35.159Z,6.00
2022-08-12T23:26:56.295Z,5.70
2022-08-12T23:29:26.061Z,4.87
2022-08-12T23:32:03.045Z,5.10
2022-08-12T23:34:01.915Z,4.60
2022-08-12T23:36:05.254Z,4.70
2022-08-12T23:38:09.824Z,5.13
2022-08-12T23:40:26.828Z,5.13
2022-08-12T23:42:30.700Z,5.20
2022-08-12T23:44:36.033Z,4.90
2022-08-12T23:46:39.522Z,5.00
2022-08-12T23:48:47.874Z,4.83
2022-08-12T23:50:52.266Z,4.43
2022-08-12T23:52:56.635Z,4.40
2022-08-12T23:54:59.202Z,4.10
2022-08-12T23:57:21.399Z,4.27
2022-08-12T23:59:29.425Z,4.60
